sensor_id;sensor_type;location;lat;lon;timestamp;pressure;altitude;pressure_sealevel;temperature;humidity
59939;BME280;45801;51.810;19.444;2023-08-31T00:02:13;98232.74;;;16.67;79.87
59939;BME280;45801;51.810;19.444;2023-08-31T00:04:39;98230.98;;;16.68;79.79
59939;BME280;45801;51.810;19.444;2023-08-31T00:07:05;98231.86;;;16.66;79.79
59939;BME280;45801;51.810;19.444;2023-08-31T00:09:30;98226.90;;;16.63;79.78
59939;BME280;45801;51.810;19.444;2023-08-31T00:11:56;98230.27;;;16.60;79.80
59939;BME280;45801;51.810;19.444;2023-08-31T00:14:25;98232.19;;;16.59;80.12
59939;BME280;45801;51.810;19.444;2023-08-31T00:16:52;98233.06;;;16.58;80.24
59939;BME280;45801;51.810;19.444;2023-08-31T00:19:18;98237.14;;;16.59;80.19
59939;BME280;45801;51.810;19.444;2023-08-31T00:21:44;98240.86;;;16.58;80.18
59939;BME280;45801;51.810;19.444;2023-08-31T00:24:10;98246.52;;;16.56;80.25
59939;BME280;45801;51.810;19.444;2023-08-31T00:26:37;98247.04;;;16.54;80.08
59939;BME280;45801;51.810;19.444;2023-08-31T00:29:10;98248.11;;;16.58;80.27
59939;BME280;45801;51.810;19.444;2023-08-31T00:31:41;98249.34;;;16.58;80.16
59939;BME280;45801;51.810;19.444;2023-08-31T00:34:10;98247.73;;;16.54;80.21
59939;BME280;45801;51.810;19.444;2023-08-31T00:36:40;98247.19;;;16.51;80.24
59939;BME280;45801;51.810;19.444;2023-08-31T00:39:06;98241.17;;;16.50;80.07
59939;BME280;45801;51.810;19.444;2023-08-31T00:41:36;98241.52;;;16.49;80.20
59939;BME280;45801;51.810;19.444;2023-08-31T00:44:02;98241.34;;;16.47;80.35
59939;BME280;45801;51.810;19.444;2023-08-31T00:46:30;98240.27;;;16.45;80.47
59939;BME280;45801;51.810;19.444;2023-08-31T00:48:57;98238.84;;;16.40;80.59
59939;BME280;45801;51.810;19.444;2023-08-31T00:51:24;98236.35;;;16.36;80.42
59939;BME280;45801;51.810;19.444;2023-08-31T00:53:51;98231.04;;;16.35;80.52
59939;BME280;45801;51.810;19.444;2023-08-31T00:56:20;98229.45;;;16.31;80.14
59939;BME280;45801;51.810;19.444;2023-08-31T00:58:47;98227.66;;;16.28;80.34
59939;BME280;45801;51.810;19.444;2023-08-31T01:04:18;98226.41;;;16.26;80.52
59939;BME280;45801;51.810;19.444;2023-08-31T01:07:21;98222.69;;;16.22;80.95
59939;BME280;45801;51.810;19.444;2023-08-31T01:15:38;98224.45;;;16.22;80.97
59939;BME280;45801;51.810;19.444;2023-08-31T01:18:09;98227.85;;;16.32;81.45
59939;BME280;45801;51.810;19.444;2023-08-31T01:20:42;98234.64;;;16.49;81.33
59939;BME280;45801;51.810;19.444;2023-08-31T01:23:15;98239.79;;;16.57;80.22
59939;BME280;45801;51.810;19.444;2023-08-31T01:25:41;98238.02;;;16.58;79.79
59939;BME280;45801;51.810;19.444;2023-08-31T01:28:10;98242.09;;;16.57;79.60
59939;BME280;45801;51.810;19.444;2023-08-31T01:30:36;98244.38;;;16.54;79.68
59939;BME280;45801;51.810;19.444;2023-08-31T01:33:02;98244.54;;;16.52;79.47
59939;BME280;45801;51.810;19.444;2023-08-31T01:35:34;98246.30;;;16.51;79.41
59939;BME280;45801;51.810;19.444;2023-08-31T01:38:04;98247.34;;;16.47;79.26
59939;BME280;45801;51.810;19.444;2023-08-31T01:40:50;98241.14;;;16.43;79.32
59939;BME280;45801;51.810;19.444;2023-08-31T01:43:19;98240.25;;;16.38;79.53
59939;BME280;45801;51.810;19.444;2023-08-31T01:45:47;98243.25;;;16.36;79.48
59939;BME280;45801;51.810;19.444;2023-08-31T01:48:14;98243.05;;;16.33;79.67
59939;BME280;45801;51.810;19.444;2023-08-31T01:50:40;98241.63;;;16.31;79.76
59939;BME280;45801;51.810;19.444;2023-08-31T01:53:06;98240.92;;;16.31;80.06
59939;BME280;45801;51.810;19.444;2023-08-31T01:55:32;98240.39;;;16.32;79.95
59939;BME280;45801;51.810;19.444;2023-08-31T01:57:58;98241.28;;;16.32;79.78
59939;BME280;45801;51.810;19.444;2023-08-31T02:00:25;98245.34;;;16.32;79.54
59939;BME280;45801;51.810;19.444;2023-08-31T02:02:51;98244.46;;;16.32;79.75
59939;BME280;45801;51.810;19.444;2023-08-31T02:05:17;98245.88;;;16.31;79.99
59939;BME280;45801;51.810;19.444;2023-08-31T02:07:44;98248.17;;;16.30;79.99
59939;BME280;45801;51.810;19.444;2023-08-31T02:10:10;98248.88;;;16.31;80.04
59939;BME280;45801;51.810;19.444;2023-08-31T02:12:36;98249.94;;;16.31;79.82
59939;BME280;45801;51.810;19.444;2023-08-31T02:15:05;98250.64;;;16.31;79.76
59939;BME280;45801;51.810;19.444;2023-08-31T02:17:33;98250.46;;;16.30;79.87
59939;BME280;45801;51.810;19.444;2023-08-31T02:19:59;98247.98;;;16.28;79.80
59939;BME280;45801;51.810;19.444;2023-08-31T02:22:27;98251.33;;;16.29;79.81
59939;BME280;45801;51.810;19.444;2023-08-31T02:24:52;98253.11;;;16.29;79.88
59939;BME280;45801;51.810;19.444;2023-08-31T02:27:18;98255.77;;;16.30;80.11
59939;BME280;45801;51.810;19.444;2023-08-31T02:29:44;98253.63;;;16.29;80.09
59939;BME280;45801;51.810;19.444;2023-08-31T02:32:10;98255.41;;;16.30;80.06
59939;BME280;45801;51.810;19.444;2023-08-31T02:34:36;98255.05;;;16.31;79.80
59939;BME280;45801;51.810;19.444;2023-08-31T02:37:02;98256.48;;;16.32;79.80
59939;BME280;45801;51.810;19.444;2023-08-31T02:39:28;98255.59;;;16.32;79.81
59939;BME280;45801;51.810;19.444;2023-08-31T02:41:54;98255.77;;;16.32;79.55
59939;BME280;45801;51.810;19.444;2023-08-31T02:44:20;98254.70;;;16.32;79.73
59939;BME280;45801;51.810;19.444;2023-08-31T02:46:45;98255.05;;;16.31;79.79
59939;BME280;45801;51.810;19.444;2023-08-31T02:49:11;98256.47;;;16.30;79.59
59939;BME280;45801;51.810;19.444;2023-08-31T02:51:37;98255.77;;;16.30;79.65
59939;BME280;45801;51.810;19.444;2023-08-31T02:54:03;98255.77;;;16.31;79.82
59939;BME280;45801;51.810;19.444;2023-08-31T02:56:29;98254.52;;;16.31;79.67
59939;BME280;45801;51.810;19.444;2023-08-31T02:58:55;98255.93;;;16.31;79.88
59939;BME280;45801;51.810;19.444;2023-08-31T03:01:21;98259.27;;;16.29;79.78
59939;BME280;45801;51.810;19.444;2023-08-31T03:03:49;98258.03;;;16.25;79.85
59939;BME280;45801;51.810;19.444;2023-08-31T03:06:15;98256.98;;;16.24;79.96
59939;BME280;45801;51.810;19.444;2023-08-31T03:08:41;98254.15;;;16.25;79.80
59939;BME280;45801;51.810;19.444;2023-08-31T03:11:07;98254.33;;;16.25;79.71
59939;BME280;45801;51.810;19.444;2023-08-31T03:13:33;98249.73;;;16.24;79.70
59939;BME280;45801;51.810;19.444;2023-08-31T03:16:00;98249.38;;;16.25;79.50
59939;BME280;45801;51.810;19.444;2023-08-31T03:18:26;98246.91;;;16.25;79.52
59939;BME280;45801;51.810;19.444;2023-08-31T03:20:51;98249.73;;;16.22;79.52
59939;BME280;45801;51.810;19.444;2023-08-31T03:23:17;98246.17;;;16.21;79.84
59939;BME280;45801;51.810;19.444;2023-08-31T03:25:43;98247.76;;;16.19;79.77
59939;BME280;45801;51.810;19.444;2023-08-31T03:28:09;98251.99;;;16.18;80.07
59939;BME280;45801;51.810;19.444;2023-08-31T03:30:36;98257.82;;;16.17;79.92
59939;BME280;45801;51.810;19.444;2023-08-31T03:33:09;98258.36;;;16.18;79.85
59939;BME280;45801;51.810;19.444;2023-08-31T03:35:35;98261.36;;;16.18;79.78
59939;BME280;45801;51.810;19.444;2023-08-31T03:38:01;98264.00;;;16.18;79.69
59939;BME280;45801;51.810;19.444;2023-08-31T03:40:27;98263.29;;;16.18;79.84
59939;BME280;45801;51.810;19.444;2023-08-31T03:42:53;98268.06;;;16.18;79.92
59939;BME280;45801;51.810;19.444;2023-08-31T03:45:20;98269.64;;;16.17;79.68
59939;BME280;45801;51.810;19.444;2023-08-31T03:47:46;98270.55;;;16.18;79.93
59939;BME280;45801;51.810;19.444;2023-08-31T03:50:12;98273.02;;;16.17;79.68
59939;BME280;45801;51.810;19.444;2023-08-31T03:52:37;98272.13;;;16.17;79.84
59939;BME280;45801;51.810;19.444;2023-08-31T03:55:04;98272.11;;;16.15;79.49
59939;BME280;45801;51.810;19.444;2023-08-31T03:57:29;98274.05;;;16.12;79.95
59939;BME280;45801;51.810;19.444;2023-08-31T03:59:55;98275.80;;;16.10;79.99
59939;BME280;45801;51.810;19.444;2023-08-31T04:02:21;98276.86;;;16.11;79.71
59939;BME280;45801;51.810;19.444;2023-08-31T04:04:48;98280.20;;;16.10;79.93
59939;BME280;45801;51.810;19.444;2023-08-31T04:07:14;98283.23;;;16.09;80.12
59939;BME280;45801;51.810;19.444;2023-08-31T04:09:40;98286.92;;;16.08;80.04
59939;BME280;45801;51.810;19.444;2023-08-31T04:12:06;98291.52;;;16.09;80.08
59939;BME280;45801;51.810;19.444;2023-08-31T04:14:32;98290.45;;;16.09;79.92
59939;BME280;45801;51.810;19.444;2023-08-31T04:16:58;98291.86;;;16.07;80.10
59939;BME280;45801;51.810;19.444;2023-08-31T04:19:24;98298.05;;;16.07;80.04
59939;BME280;45801;51.810;19.444;2023-08-31T04:21:50;98299.98;;;16.06;80.00
59939;BME280;45801;51.810;19.444;2023-08-31T04:24:15;98301.39;;;16.06;79.90
59939;BME280;45801;51.810;19.444;2023-08-31T04:26:42;98302.11;;;16.07;80.02
59939;BME280;45801;51.810;19.444;2023-08-31T04:29:08;98305.46;;;16.07;79.92
59939;BME280;45801;51.810;19.444;2023-08-31T04:31:34;98306.17;;;16.08;80.24
59939;BME280;45801;51.810;19.444;2023-08-31T04:34:00;98308.13;;;16.10;80.11
59939;BME280;45801;51.810;19.444;2023-08-31T04:36:26;98311.30;;;16.08;79.70
59939;BME280;45801;51.810;19.444;2023-08-31T04:38:52;98315.70;;;16.07;79.77
59939;BME280;45801;51.810;19.444;2023-08-31T04:41:18;98315.86;;;16.04;79.72
59939;BME280;45801;51.810;19.444;2023-08-31T04:43:44;98313.38;;;16.03;79.95
59939;BME280;45801;51.810;19.444;2023-08-31T04:46:13;98311.25;;;16.04;80.24
59939;BME280;45801;51.810;19.444;2023-08-31T04:48:40;98317.10;;;16.05;80.12
59939;BME280;45801;51.810;19.444;2023-08-31T04:51:06;98319.05;;;16.06;80.05
59939;BME280;45801;51.810;19.444;2023-08-31T04:53:32;98321.16;;;16.05;79.98
59939;BME280;45801;51.810;19.444;2023-08-31T04:55:58;98320.81;;;16.04;80.07
59939;BME280;45801;51.810;19.444;2023-08-31T04:58:24;98318.33;;;16.04;80.17
59939;BME280;45801;51.810;19.444;2023-08-31T05:00:53;98319.94;;;16.06;80.66
59939;BME280;45801;51.810;19.444;2023-08-31T05:03:19;98320.63;;;16.05;80.50
59939;BME280;45801;51.810;19.444;2023-08-31T05:05:45;98322.23;;;16.04;80.18
59939;BME280;45801;51.810;19.444;2023-08-31T05:08:10;98321.51;;;16.03;80.19
59939;BME280;45801;51.810;19.444;2023-08-31T05:10:36;98324.69;;;16.03;80.20
59939;BME280;45801;51.810;19.444;2023-08-31T05:13:02;98327.35;;;16.04;80.31
59939;BME280;45801;51.810;19.444;2023-08-31T05:15:29;98327.52;;;16.04;80.44
59939;BME280;45801;51.810;19.444;2023-08-31T05:17:55;98328.24;;;16.05;80.69
59939;BME280;45801;51.810;19.444;2023-08-31T05:20:21;98326.30;;;16.07;81.05
59939;BME280;45801;51.810;19.444;2023-08-31T05:22:49;98327.54;;;16.09;80.72
59939;BME280;45801;51.810;19.444;2023-08-31T05:25:14;98327.02;;;16.10;80.89
59939;BME280;45801;51.810;19.444;2023-08-31T05:27:40;98333.93;;;16.13;80.68
59939;BME280;45801;51.810;19.444;2023-08-31T05:30:06;98338.35;;;16.13;80.42
59939;BME280;45801;51.810;19.444;2023-08-31T05:32:32;98341.17;;;16.13;80.56
59939;BME280;45801;51.810;19.444;2023-08-31T05:34:58;98345.61;;;16.15;80.54
59939;BME280;45801;51.810;19.444;2023-08-31T05:37:25;98348.97;;;16.17;80.47
59939;BME280;45801;51.810;19.444;2023-08-31T05:39:51;98348.80;;;16.18;80.50
59939;BME280;45801;51.810;19.444;2023-08-31T05:42:17;98351.09;;;16.16;80.59
59939;BME280;45801;51.810;19.444;2023-08-31T05:44:44;98351.28;;;16.18;80.89
59939;BME280;45801;51.810;19.444;2023-08-31T05:47:10;98355.01;;;16.19;81.04
59939;BME280;45801;51.810;19.444;2023-08-31T05:49:35;98358.55;;;16.21;80.75
59939;BME280;45801;51.810;19.444;2023-08-31T05:52:01;98358.04;;;16.23;80.75
59939;BME280;45801;51.810;19.444;2023-08-31T05:54:27;98356.63;;;16.25;80.28
59939;BME280;45801;51.810;19.444;2023-08-31T05:56:53;98357.34;;;16.24;79.91
59939;BME280;45801;51.810;19.444;2023-08-31T05:59:19;98364.39;;;16.22;80.09
59939;BME280;45801;51.810;19.444;2023-08-31T06:01:45;98365.62;;;16.21;80.10
59939;BME280;45801;51.810;19.444;2023-08-31T06:04:12;98366.15;;;16.21;80.42
59939;BME280;45801;51.810;19.444;2023-08-31T06:06:37;98369.52;;;16.23;80.66
59939;BME280;45801;51.810;19.444;2023-08-31T06:09:04;98373.08;;;16.28;80.72
59939;BME280;45801;51.810;19.444;2023-08-31T06:11:33;98370.63;;;16.31;81.17
59939;BME280;45801;51.810;19.444;2023-08-31T06:13:58;98369.75;;;16.34;80.47
59939;BME280;45801;51.810;19.444;2023-08-31T06:16:24;98372.08;;;16.35;80.49
59939;BME280;45801;51.810;19.444;2023-08-31T06:18:50;98372.05;;;16.34;80.09
59939;BME280;45801;51.810;19.444;2023-08-31T06:21:17;98375.94;;;16.34;80.05
59939;BME280;45801;51.810;19.444;2023-08-31T06:23:42;98380.20;;;16.36;80.70
59939;BME280;45801;51.810;19.444;2023-08-31T06:26:08;98378.64;;;16.40;80.53
59939;BME280;45801;51.810;19.444;2023-08-31T06:28:34;98378.65;;;16.46;80.62
59939;BME280;45801;51.810;19.444;2023-08-31T06:31:00;98376.75;;;16.51;80.74
59939;BME280;45801;51.810;19.444;2023-08-31T06:33:25;98374.84;;;16.56;80.18
59939;BME280;45801;51.810;19.444;2023-08-31T06:35:51;98377.16;;;16.62;79.88
59939;BME280;45801;51.810;19.444;2023-08-31T06:38:18;98380.55;;;16.67;79.63
59939;BME280;45801;51.810;19.444;2023-08-31T06:40:44;98382.89;;;16.72;79.36
59939;BME280;45801;51.810;19.444;2023-08-31T06:43:10;98382.56;;;16.81;79.60
59939;BME280;45801;51.810;19.444;2023-08-31T06:45:36;98374.84;;;16.87;78.82
59939;BME280;45801;51.810;19.444;2023-08-31T06:48:02;98372.73;;;16.89;78.69
59939;BME280;45801;51.810;19.444;2023-08-31T06:50:28;98370.82;;;16.93;78.87
59939;BME280;45801;51.810;19.444;2023-08-31T06:52:54;98369.58;;;16.98;78.58
59939;BME280;45801;51.810;19.444;2023-08-31T06:55:20;98373.14;;;17.02;78.50
59939;BME280;45801;51.810;19.444;2023-08-31T06:57:45;98368.02;;;17.07;78.33
59939;BME280;45801;51.810;19.444;2023-08-31T07:00:12;98365.75;;;17.11;77.95
59939;BME280;45801;51.810;19.444;2023-08-31T07:02:41;98363.82;;;17.16;77.88
59939;BME280;45801;51.810;19.444;2023-08-31T07:05:08;98364.70;;;17.18;77.20
59939;BME280;45801;51.810;19.444;2023-08-31T07:07:34;98363.45;;;17.17;76.65
59939;BME280;45801;51.810;19.444;2023-08-31T07:10:00;98366.46;;;17.19;77.25
59939;BME280;45801;51.810;19.444;2023-08-31T07:12:26;98365.95;;;17.23;77.07
59939;BME280;45801;51.810;19.444;2023-08-31T07:14:52;98371.81;;;17.28;77.37
59939;BME280;45801;51.810;19.444;2023-08-31T07:17:18;98367.03;;;17.34;77.52
59939;BME280;45801;51.810;19.444;2023-08-31T07:19:45;98367.41;;;17.40;76.99
59939;BME280;45801;51.810;19.444;2023-08-31T07:22:11;98369.73;;;17.44;76.53
59939;BME280;45801;51.810;19.444;2023-08-31T07:24:37;98372.73;;;17.45;76.14
59939;BME280;45801;51.810;19.444;2023-08-31T07:27:04;98367.78;;;17.48;76.35
59939;BME280;45801;51.810;19.444;2023-08-31T07:29:30;98364.26;;;17.54;76.75
59939;BME280;45801;51.810;19.444;2023-08-31T07:31:57;98371.33;;;17.60;76.18
59939;BME280;45801;51.810;19.444;2023-08-31T07:34:23;98375.23;;;17.66;76.23
59939;BME280;45801;51.810;19.444;2023-08-31T07:36:49;98380.38;;;17.72;76.04
59939;BME280;45801;51.810;19.444;2023-08-31T07:39:15;98384.46;;;17.76;76.17
59939;BME280;45801;51.810;19.444;2023-08-31T07:41:43;98390.48;;;17.79;75.79
59939;BME280;45801;51.810;19.444;2023-08-31T07:44:15;98389.06;;;17.79;74.22
59939;BME280;45801;51.810;19.444;2023-08-31T07:46:41;98393.85;;;17.78;74.33
59939;BME280;45801;51.810;19.444;2023-08-31T07:49:06;98399.16;;;17.75;74.39
59939;BME280;45801;51.810;19.444;2023-08-31T07:51:32;98396.50;;;17.73;73.85
59939;BME280;45801;51.810;19.444;2023-08-31T07:53:59;98394.90;;;17.69;72.60
59939;BME280;45801;51.810;19.444;2023-08-31T07:56:25;98395.43;;;17.66;72.71
59939;BME280;45801;51.810;19.444;2023-08-31T07:58:51;98398.62;;;17.66;73.07
59939;BME280;45801;51.810;19.444;2023-08-31T08:01:17;98402.88;;;17.68;73.68
59939;BME280;45801;51.810;19.444;2023-08-31T08:03:43;98406.95;;;17.72;72.53
59939;BME280;45801;51.810;19.444;2023-08-31T08:06:09;98409.42;;;17.72;71.90
59939;BME280;45801;51.810;19.444;2023-08-31T08:08:35;98412.27;;;17.73;72.29
59939;BME280;45801;51.810;19.444;2023-08-31T08:11:00;98413.86;;;17.77;71.73
59939;BME280;45801;51.810;19.444;2023-08-31T08:13:28;98414.41;;;17.84;71.58
59939;BME280;45801;51.810;19.444;2023-08-31T08:15:54;98417.45;;;17.92;71.04
59939;BME280;45801;51.810;19.444;2023-08-31T08:18:20;98418.71;;;17.98;70.17
59939;BME280;45801;51.810;19.444;2023-08-31T08:20:50;98417.66;;;18.05;69.93
59939;BME280;45801;51.810;19.444;2023-08-31T08:23:16;98415.69;;;18.14;69.58
59939;BME280;45801;51.810;19.444;2023-08-31T08:25:42;98417.83;;;18.23;69.94
59939;BME280;45801;51.810;19.444;2023-08-31T08:28:08;98423.30;;;18.30;70.25
59939;BME280;45801;51.810;19.444;2023-08-31T08:30:34;98422.23;;;18.37;69.55
59939;BME280;45801;51.810;19.444;2023-08-31T08:33:00;98428.08;;;18.46;68.76
59939;BME280;45801;51.810;19.444;2023-08-31T08:35:26;98428.95;;;18.51;67.75
59939;BME280;45801;51.810;19.444;2023-08-31T08:37:57;98427.35;;;18.57;66.64
59939;BME280;45801;51.810;19.444;2023-08-31T08:40:24;98425.21;;;18.63;66.99
59939;BME280;45801;51.810;19.444;2023-08-31T08:42:52;98423.60;;;18.66;66.37
59939;BME280;45801;51.810;19.444;2023-08-31T08:45:19;98422.70;;;18.71;66.25
59939;BME280;45801;51.810;19.444;2023-08-31T08:47:46;98426.23;;;18.80;67.05
59939;BME280;45801;51.810;19.444;2023-08-31T08:50:13;98429.08;;;18.89;66.05
59939;BME280;45801;51.810;19.444;2023-08-31T08:52:40;98427.66;;;18.93;65.32
59939;BME280;45801;51.810;19.444;2023-08-31T08:55:08;98429.79;;;18.93;65.32
59939;BME280;45801;51.810;19.444;2023-08-31T08:57:38;98426.77;;;18.93;65.92
59939;BME280;45801;51.810;19.444;2023-08-31T09:00:04;98422.49;;;18.97;66.94
59939;BME280;45801;51.810;19.444;2023-08-31T09:02:30;98424.59;;;19.04;66.59
59939;BME280;45801;51.810;19.444;2023-08-31T09:04:56;98423.16;;;19.08;66.55
59939;BME280;45801;51.810;19.444;2023-08-31T09:07:22;98424.20;;;19.13;67.50
59939;BME280;45801;51.810;19.444;2023-08-31T09:09:53;98420.10;;;19.19;67.30
59939;BME280;45801;51.810;19.444;2023-08-31T09:12:23;98423.28;;;19.24;66.06
59939;BME280;45801;51.810;19.444;2023-08-31T09:14:57;98423.61;;;19.30;67.35
59939;BME280;45801;51.810;19.444;2023-08-31T09:17:24;98428.37;;;19.37;66.44
59939;BME280;45801;51.810;19.444;2023-08-31T09:19:59;98434.02;;;19.43;66.06
59939;BME280;45801;51.810;19.444;2023-08-31T09:22:26;98434.52;;;19.49;65.29
59939;BME280;45801;51.810;19.444;2023-08-31T09:24:55;98438.40;;;19.55;65.14
59939;BME280;45801;51.810;19.444;2023-08-31T09:27:21;98435.17;;;19.59;64.98
59939;BME280;45801;51.810;19.444;2023-08-31T09:29:48;98436.04;;;19.61;64.45
59939;BME280;45801;51.810;19.444;2023-08-31T09:32:18;98436.21;;;19.64;63.82
59939;BME280;45801;51.810;19.444;2023-08-31T09:34:44;98442.27;;;19.62;62.53
59939;BME280;45801;51.810;19.444;2023-08-31T09:37:10;98443.67;;;19.65;64.56
59939;BME280;45801;51.810;19.444;2023-08-31T09:39:40;98442.90;;;19.73;65.66
59939;BME280;45801;51.810;19.444;2023-08-31T09:42:08;98444.66;;;19.82;64.71
59939;BME280;45801;51.810;19.444;2023-08-31T09:44:34;98446.57;;;19.88;63.87
59939;BME280;45801;51.810;19.444;2023-08-31T09:47:05;98446.70;;;19.96;63.11
59939;BME280;45801;51.810;19.444;2023-08-31T09:49:32;98447.38;;;20.00;62.54
59939;BME280;45801;51.810;19.444;2023-08-31T09:52:03;98446.98;;;20.07;62.57
59939;BME280;45801;51.810;19.444;2023-08-31T09:54:29;98445.86;;;20.13;63.41
59939;BME280;45801;51.810;19.444;2023-08-31T09:56:57;98446.71;;;20.18;62.67
59939;BME280;45801;51.810;19.444;2023-08-31T09:59:26;98453.64;;;20.19;62.16
59939;BME280;45801;51.810;19.444;2023-08-31T10:01:52;98453.13;;;20.16;61.28
59939;BME280;45801;51.810;19.444;2023-08-31T10:04:18;98459.36;;;20.14;62.09
59939;BME280;45801;51.810;19.444;2023-08-31T10:06:44;98459.19;;;20.13;62.88
59939;BME280;45801;51.810;19.444;2023-08-31T10:09:10;98459.53;;;20.16;64.06
59939;BME280;45801;51.810;19.444;2023-08-31T10:11:40;98455.05;;;20.19;64.12
59939;BME280;45801;51.810;19.444;2023-08-31T10:14:11;98454.86;;;20.22;64.43
59939;BME280;45801;51.810;19.444;2023-08-31T10:16:41;98454.99;;;20.27;63.50
59939;BME280;45801;51.810;19.444;2023-08-31T10:19:09;98454.10;;;20.27;61.60
59939;BME280;45801;51.810;19.444;2023-08-31T10:21:35;98453.35;;;20.31;61.79
59939;BME280;45801;51.810;19.444;2023-08-31T10:24:01;98447.94;;;20.42;62.25
59939;BME280;45801;51.810;19.444;2023-08-31T10:26:31;98444.63;;;20.53;61.12
59939;BME280;45801;51.810;19.444;2023-08-31T10:28:58;98443.70;;;20.58;61.12
59939;BME280;45801;51.810;19.444;2023-08-31T10:31:29;98443.34;;;20.58;61.62
59939;BME280;45801;51.810;19.444;2023-08-31T10:33:58;98444.25;;;20.55;61.64
59939;BME280;45801;51.810;19.444;2023-08-31T10:36:41;98442.66;;;20.55;62.05
59939;BME280;45801;51.810;19.444;2023-08-31T10:39:14;98440.38;;;20.50;61.11
59939;BME280;45801;51.810;19.444;2023-08-31T10:41:42;98440.77;;;20.46;61.54
59939;BME280;45801;51.810;19.444;2023-08-31T10:44:37;98443.14;;;20.40;60.99
59939;BME280;45801;51.810;19.444;2023-08-31T10:47:07;98442.48;;;20.35;62.81
59939;BME280;45801;51.810;19.444;2023-08-31T10:49:33;98439.93;;;20.41;62.80
59939;BME280;45801;51.810;19.444;2023-08-31T10:52:19;98434.86;;;20.52;63.00
59939;BME280;45801;51.810;19.444;2023-08-31T10:54:55;98432.63;;;20.62;63.09
59939;BME280;45801;51.810;19.444;2023-08-31T10:57:29;98431.61;;;20.76;62.71
59939;BME280;45801;51.810;19.444;2023-08-31T10:59:55;98434.86;;;20.89;60.16
59939;BME280;45801;51.810;19.444;2023-08-31T11:02:29;98435.44;;;21.03;60.32
59939;BME280;45801;51.810;19.444;2023-08-31T11:07:32;98437.11;;;21.11;58.67
59939;BME280;45801;51.810;19.444;2023-08-31T11:10:11;98444.12;;;21.05;58.37
59939;BME280;45801;51.810;19.444;2023-08-31T11:12:41;98456.54;;;20.93;57.71
59939;BME280;45801;51.810;19.444;2023-08-31T11:15:08;98469.67;;;20.79;60.81
59939;BME280;45801;51.810;19.444;2023-08-31T11:17:36;98485.27;;;20.66;62.66
59939;BME280;45801;51.810;19.444;2023-08-31T11:20:05;98472.02;;;20.55;65.34
59939;BME280;45801;51.810;19.444;2023-08-31T11:22:31;98466.09;;;20.38;67.26
59939;BME280;45801;51.810;19.444;2023-08-31T11:24:58;98471.38;;;20.24;67.84
59939;BME280;45801;51.810;19.444;2023-08-31T11:27:25;98474.82;;;20.15;67.81
59939;BME280;45801;51.810;19.444;2023-08-31T11:29:52;98473.45;;;20.08;68.45
59939;BME280;45801;51.810;19.444;2023-08-31T11:32:18;98475.28;;;20.02;68.83
59939;BME280;45801;51.810;19.444;2023-08-31T11:34:44;98477.60;;;20.00;69.56
59939;BME280;45801;51.810;19.444;2023-08-31T11:37:12;98483.13;;;19.97;69.99
59939;BME280;45801;51.810;19.444;2023-08-31T11:39:42;98480.64;;;19.97;69.70
59939;BME280;45801;51.810;19.444;2023-08-31T11:42:14;98472.81;;;19.99;69.70
59939;BME280;45801;51.810;19.444;2023-08-31T11:44:41;98466.92;;;20.00;71.44
59939;BME280;45801;51.810;19.444;2023-08-31T11:47:08;98471.06;;;19.94;73.61
59939;BME280;45801;51.810;19.444;2023-08-31T11:49:36;98476.64;;;19.82;74.07
59939;BME280;45801;51.810;19.444;2023-08-31T11:52:06;98472.60;;;19.68;74.72
59939;BME280;45801;51.810;19.444;2023-08-31T11:54:33;98472.65;;;19.59;74.43
59939;BME280;45801;51.810;19.444;2023-08-31T11:56:59;98468.05;;;19.56;75.97
59939;BME280;45801;51.810;19.444;2023-08-31T11:59:27;98466.07;;;19.62;75.47
59939;BME280;45801;51.810;19.444;2023-08-31T12:01:56;98467.08;;;19.73;73.66
59939;BME280;45801;51.810;19.444;2023-08-31T12:04:22;98466.48;;;19.86;73.44
59939;BME280;45801;51.810;19.444;2023-08-31T12:07:01;98465.16;;;20.00;73.30
59939;BME280;45801;51.810;19.444;2023-08-31T12:09:30;98465.09;;;20.09;73.81
59939;BME280;45801;51.810;19.444;2023-08-31T12:11:57;98477.20;;;20.07;73.23
59939;BME280;45801;51.810;19.444;2023-08-31T12:14:25;98483.83;;;19.99;71.10
59939;BME280;45801;51.810;19.444;2023-08-31T12:17:00;98487.96;;;19.91;71.80
59939;BME280;45801;51.810;19.444;2023-08-31T12:19:29;98490.50;;;19.82;71.01
59939;BME280;45801;51.810;19.444;2023-08-31T12:21:57;98495.15;;;19.70;71.26
59939;BME280;45801;51.810;19.444;2023-08-31T12:24:24;98493.96;;;19.59;71.57
59939;BME280;45801;51.810;19.444;2023-08-31T12:26:51;98497.73;;;19.49;70.62
59939;BME280;45801;51.810;19.444;2023-08-31T12:29:19;98497.45;;;19.35;70.94
59939;BME280;45801;51.810;19.444;2023-08-31T12:31:46;98496.96;;;19.21;72.92
59939;BME280;45801;51.810;19.444;2023-08-31T12:34:12;98500.19;;;19.11;72.54
59939;BME280;45801;51.810;19.444;2023-08-31T12:36:38;98509.98;;;18.99;71.58
59939;BME280;45801;51.810;19.444;2023-08-31T12:39:24;98519.58;;;18.90;72.05
59939;BME280;45801;51.810;19.444;2023-08-31T12:41:50;98534.29;;;18.73;72.17
59939;BME280;45801;51.810;19.444;2023-08-31T12:44:15;98542.10;;;18.62;73.03
59939;BME280;45801;51.810;19.444;2023-08-31T12:46:41;98551.49;;;18.59;73.01
59939;BME280;45801;51.810;19.444;2023-08-31T12:49:07;98553.63;;;18.61;73.12
59939;BME280;45801;51.810;19.444;2023-08-31T12:51:33;98560.36;;;18.62;72.63
59939;BME280;45801;51.810;19.444;2023-08-31T12:53:58;98566.75;;;18.57;72.08
59939;BME280;45801;51.810;19.444;2023-08-31T12:56:24;98574.90;;;18.53;72.29
59939;BME280;45801;51.810;19.444;2023-08-31T12:58:52;98578.27;;;18.46;71.67
59939;BME280;45801;51.810;19.444;2023-08-31T13:01:19;98584.63;;;18.35;71.49
59939;BME280;45801;51.810;19.444;2023-08-31T13:03:46;98591.89;;;18.23;72.05